createdAt,value
2018-02-23T00:04:25.380Z,44.10
2018-02-23T00:09:27.131Z,44.10
2018-02-23T00:14:28.148Z,44.00
2018-02-23T00:19:29.164Z,44.00
2018-02-23T00:24:30.160Z,44.00
2018-02-23T00:29:31.160Z,43.60
2018-02-23T00:34:32.171Z,44.00
2018-02-23T00:39:33.184Z,44.60
2018-02-23T00:44:34.918Z,44.00
2018-02-23T00:49:35.919Z,44.00
2018-02-23T00:54:36.956Z,44.30
2018-02-23T00:59:38.691Z,44.10
2018-02-23T01:04:39.684Z,44.10
2018-02-23T01:09:40.669Z,44.80
2018-02-23T01:14:41.672Z,44.60
2018-02-23T01:19:42.721Z,45.50
2018-02-23T01:24:43.748Z,45.00
2018-02-23T01:29:45.524Z,44.80
2018-02-23T01:34:46.520Z,44.80
2018-02-23T01:39:47.531Z,45.10
2018-02-23T01:44:49.259Z,44.90
2018-02-23T01:49:50.252Z,44.90
2018-02-23T01:54:51.255Z,45.30
2018-02-23T01:59:52.261Z,45.20
2018-02-23T02:04:53.272Z,45.40
2018-02-23T02:09:54.280Z,45.50
2018-02-23T02:14:55.279Z,45.50
2018-02-23T02:19:56.272Z,45.80
2018-02-23T02:24:57.263Z,45.60
2018-02-23T02:29:58.281Z,45.70
2018-02-23T02:35:00.076Z,45.90
2018-02-23T02:40:01.085Z,45.80
2018-02-23T02:45:02.100Z,45.80
2018-02-23T02:50:03.117Z,45.80
2018-02-23T02:55:04.128Z,45.90
2018-02-23T03:00:05.189Z,46.00
2018-02-23T03:05:06.940Z,45.80
2018-02-23T03:10:07.949Z,45.70
2018-02-23T03:15:08.951Z,45.10
2018-02-23T03:20:10.687Z,46.00
2018-02-23T03:25:11.704Z,46.00
2018-02-23T03:30:12.719Z,45.90
2018-02-23T03:35:14.455Z,45.80
2018-02-23T03:40:15.463Z,45.10
2018-02-23T03:45:16.467Z,44.80
2018-02-23T03:50:17.472Z,45.60
2018-02-23T03:55:18.495Z,46.40
2018-02-23T04:00:19.511Z,45.80
2018-02-23T04:05:20.557Z,45.60
2018-02-23T04:10:22.280Z,45.60
2018-02-23T04:15:23.296Z,45.60
2018-02-23T04:20:24.301Z,45.70
2018-02-23T04:25:25.303Z,46.00
2018-02-23T04:30:26.307Z,46.00
2018-02-23T04:35:28.079Z,45.80
2018-02-23T04:40:29.123Z,45.80
2018-02-23T04:45:30.878Z,45.90
2018-02-23T04:50:31.884Z,45.90
2018-02-23T04:55:32.893Z,46.10
2018-02-23T05:00:34.648Z,46.30
2018-02-23T05:05:35.671Z,46.30
2018-02-23T05:10:36.692Z,45.70
2018-02-23T05:15:37.696Z,45.70
2018-02-23T05:20:38.695Z,46.60
2018-02-23T05:25:39.709Z,46.40
2018-02-23T05:30:41.608Z,47.60
2018-02-23T05:35:42.652Z,47.20
2018-02-23T05:40:43.644Z,47.00
2018-02-23T05:45:44.648Z,47.00
2018-02-23T05:50:45.677Z,47.80
2018-02-23T05:55:46.627Z,47.80
2018-02-23T06:00:48.358Z,47.70
2018-02-23T06:05:49.361Z,47.70
2018-02-23T06:10:50.347Z,48.20
2018-02-23T06:15:57.583Z,49.40
2018-02-23T06:20:58.588Z,48.60
2018-02-23T06:25:59.597Z,48.70
2018-02-23T06:31:01.332Z,50.20
2018-02-23T06:36:02.335Z,50.20
2018-02-23T06:41:03.352Z,49.60
2018-02-23T06:46:04.343Z,50.30
2018-02-23T06:51:06.093Z,49.70
2018-02-23T06:56:07.091Z,49.60
2018-02-23T07:01:08.138Z,48.10
2018-02-23T07:06:09.136Z,47.00
2018-02-23T07:11:10.168Z,45.60
2018-02-23T07:16:11.132Z,45.80
2018-02-23T08:45:43.252Z,44.10
2018-02-23T08:50:45.104Z,33.70
2018-02-23T08:55:46.174Z,34.20
2018-02-23T09:00:47.136Z,31.60
2018-02-23T09:05:48.872Z,32.40
2018-02-23T09:16:18.720Z,32.40
2018-02-23T09:21:20.148Z,32.70
2018-02-23T09:26:21.196Z,32.80
2018-02-23T09:31:22.175Z,31.90
2018-02-23T09:36:23.188Z,32.30
2018-02-23T09:41:24.947Z,28.20
2018-02-23T09:46:25.947Z,28.10
2018-02-23T09:51:27.611Z,28.50
2018-02-23T09:56:28.668Z,27.40
2018-02-23T10:01:30.403Z,26.80
2018-02-23T10:06:31.401Z,26.80
2018-02-23T10:11:32.436Z,27.20
2018-02-23T10:16:33.444Z,27.20
2018-02-23T10:21:34.447Z,29.30
2018-02-23T10:26:35.457Z,29.90
2018-02-23T10:31:37.243Z,30.30
2018-02-23T10:36:38.243Z,30.20
2018-02-23T10:41:39.981Z,32.00
2018-02-23T10:52:10.531Z,34.10
2018-02-23T10:57:11.556Z,34.10
2018-02-23T11:02:13.316Z,34.10
2018-02-23T11:07:14.328Z,34.00
2018-02-23T11:12:15.360Z,34.10
2018-02-23T11:17:16.379Z,33.90
2018-02-23T11:22:17.400Z,34.20
2018-02-23T11:27:19.128Z,34.90
2018-02-23T11:32:20.136Z,34.90
2018-02-23T11:37:21.143Z,34.50
2018-02-23T11:42:22.176Z,34.20
2018-02-23T11:47:23.195Z,34.40
2018-02-23T11:52:24.211Z,33.90
2018-02-23T12:03:02.619Z,34.30
2018-02-23T12:08:03.615Z,34.40
2018-02-23T12:13:20.292Z,33.70
2018-02-23T12:18:21.300Z,33.70
2018-02-23T12:23:22.295Z,33.80
2018-02-23T12:28:23.474Z,33.90
2018-02-23T12:33:24.463Z,33.70
2018-02-23T12:38:25.471Z,33.50
2018-02-23T12:43:27.049Z,33.00
2018-02-23T12:48:28.048Z,32.60
2018-02-23T12:53:29.056Z,32.40
2018-02-23T12:58:30.800Z,31.90
2018-02-23T13:03:31.810Z,31.80
2018-02-23T13:08:32.811Z,32.10
2018-02-23T13:13:34.555Z,31.20
2018-02-23T13:18:35.555Z,31.10
2018-02-23T13:23:36.564Z,30.50
2018-02-23T13:28:43.768Z,30.40
2018-02-23T13:33:44.779Z,30.30
2018-02-23T13:38:45.775Z,30.00
2018-02-23T13:43:47.500Z,30.00
2018-02-23T13:48:48.520Z,30.00
2018-02-23T13:53:49.547Z,29.50
2018-02-23T13:58:51.283Z,29.10
2018-02-23T14:03:52.307Z,29.10
2018-02-23T14:08:53.295Z,29.40
2018-02-23T14:13:54.284Z,29.80
2018-02-23T14:18:56.021Z,29.50
2018-02-23T14:23:57.015Z,29.40
2018-02-23T14:28:58.011Z,29.00
2018-02-23T14:33:58.995Z,28.80
2018-02-23T14:38:59.996Z,29.00
2018-02-23T14:44:00.988Z,29.30
2018-02-23T14:49:14.952Z,30.10
2018-02-23T14:54:15.957Z,30.00
2018-02-23T14:59:16.966Z,29.70
2018-02-23T15:04:18.021Z,29.50
2018-02-23T15:09:18.987Z,29.50
2018-02-23T15:14:20.272Z,29.10
2018-02-23T15:19:21.264Z,29.60
2018-02-23T15:24:22.261Z,29.90
2018-02-23T15:29:23.265Z,29.70
2018-02-23T15:34:25.004Z,30.10
2018-02-23T15:39:26.014Z,30.10
2018-02-23T15:44:27.009Z,30.20
2018-02-23T15:49:34.171Z,30.30
2018-02-23T15:54:35.192Z,30.20
2018-02-23T15:59:36.203Z,30.20
2018-02-23T16:04:37.211Z,29.90
2018-02-23T16:09:38.204Z,30.30
2018-02-23T16:14:39.219Z,30.60
2018-02-23T16:19:40.246Z,30.60
2018-02-23T16:24:41.276Z,30.30
2018-02-23T16:29:42.292Z,30.30
2018-02-23T16:34:43.300Z,30.40
2018-02-23T16:39:45.040Z,30.50
2018-02-23T16:44:46.030Z,30.40
2018-02-23T16:49:47.053Z,30.60
2018-02-23T16:54:48.787Z,30.50
2018-02-23T16:59:49.786Z,30.50
2018-02-23T17:04:50.799Z,31.10
2018-02-23T17:09:51.815Z,30.80
2018-02-23T17:14:53.567Z,30.90
2018-02-23T17:19:54.571Z,31.00
2018-02-23T17:24:55.591Z,30.90
2018-02-23T17:29:56.576Z,31.30
2018-02-23T17:34:57.575Z,30.90
2018-02-23T17:39:58.614Z,30.90
2018-02-23T17:45:00.364Z,31.60
2018-02-23T17:50:01.384Z,31.60
2018-02-23T17:55:02.376Z,30.80
2018-02-23T18:00:03.376Z,31.00
2018-02-23T18:05:05.107Z,31.40
2018-02-23T18:10:06.088Z,31.40
2018-02-23T18:15:07.076Z,31.70
2018-02-23T18:20:08.131Z,31.40
2018-02-23T18:25:09.124Z,32.00
2018-02-23T18:30:10.117Z,31.60
2018-02-23T18:35:11.333Z,32.20
2018-02-23T18:40:12.308Z,32.10
2018-02-23T18:45:13.306Z,32.00
2018-02-23T18:50:14.295Z,32.10
2018-02-23T18:55:15.276Z,32.60
2018-02-23T19:00:16.259Z,31.30
2018-02-23T19:05:17.271Z,32.90
2018-02-23T19:10:18.275Z,33.30
2018-02-23T19:15:20.094Z,33.60
2018-02-23T19:20:21.086Z,33.60
2018-02-23T19:25:22.327Z,34.10
2018-02-23T19:30:23.441Z,34.20
2018-02-23T19:35:24.440Z,34.30
2018-02-23T19:40:25.461Z,34.80
2018-02-23T19:45:27.204Z,35.40
2018-02-23T19:50:28.210Z,35.30
2018-02-23T19:55:29.220Z,35.50
2018-02-23T20:00:30.208Z,35.50
2018-02-23T20:05:32.165Z,36.30
2018-02-23T20:10:33.360Z,36.30
2018-02-23T20:15:35.556Z,36.10
2018-02-23T20:20:36.700Z,36.00
2018-02-23T20:25:38.010Z,37.00
2018-02-23T20:30:39.227Z,37.30
2018-02-23T20:35:40.368Z,37.80
2018-02-23T20:40:41.520Z,38.10
2018-02-23T20:45:42.634Z,38.50
2018-02-23T20:50:43.666Z,38.60
2018-02-23T20:55:44.936Z,39.00
2018-02-23T21:00:46.248Z,39.20
2018-02-23T21:05:47.296Z,39.20
2018-02-23T21:10:49.039Z,39.70
2018-02-23T21:15:50.271Z,39.70
2018-02-23T21:20:51.316Z,39.70
2018-02-23T21:25:52.632Z,40.30
2018-02-23T21:30:53.711Z,40.50
2018-02-23T21:35:54.711Z,40.40
2018-02-23T21:40:56.452Z,41.00
2018-02-23T21:45:57.458Z,41.00
2018-02-23T21:50:58.472Z,41.00
2018-02-23T21:55:59.464Z,41.30
2018-02-23T22:01:01.212Z,41.90
2018-02-23T22:06:02.216Z,41.80
2018-02-23T22:11:03.227Z,42.40
2018-02-23T22:16:04.954Z,42.10
2018-02-23T22:21:05.947Z,42.10
2018-02-23T22:26:06.935Z,42.30
2018-02-23T22:31:07.914Z,42.50
2018-02-23T22:36:08.924Z,42.10
2018-02-23T22:41:09.924Z,42.60
2018-02-23T22:46:11.663Z,42.60
2018-02-23T22:51:12.667Z,42.60
2018-02-23T22:56:13.665Z,43.00
2018-02-23T23:01:14.660Z,43.70
2018-02-23T23:06:15.671Z,43.60
2018-02-23T23:11:17.422Z,44.20
2018-02-23T23:16:18.419Z,44.20
2018-02-23T23:21:19.436Z,44.10
2018-02-23T23:26:21.171Z,44.70
2018-02-23T23:31:22.181Z,44.30
2018-02-23T23:36:23.184Z,44.40
2018-02-23T23:41:24.191Z,44.60
2018-02-23T23:46:25.951Z,44.80
2018-02-23T23:51:26.931Z,44.80
2018-02-23T23:56:27.937Z,44.90
